createdAt,value
2018-12-31T00:02:19.765Z,4.33
2018-12-31T00:05:09.679Z,5.00
2018-12-31T00:07:59.695Z,7.47
2018-12-31T00:10:50.551Z,8.37
2018-12-31T00:13:40.177Z,4.07
2018-12-31T00:16:30.318Z,10.27
2018-12-31T00:19:20.846Z,2.50
2018-12-31T00:22:10.973Z,3.40
2018-12-31T00:25:00.534Z,4.67
2018-12-31T00:27:50.402Z,3.20
2018-12-31T00:30:40.634Z,3.77
2018-12-31T00:33:30.502Z,3.90
2018-12-31T00:36:20.658Z,10.60
2018-12-31T00:39:10.541Z,7.53
2018-12-31T00:42:00.821Z,4.27
2018-12-31T00:44:51.112Z,5.90
2018-12-31T00:47:41.098Z,3.87
2018-12-31T00:50:31.271Z,2.30
2018-12-31T00:53:20.981Z,5.97
2018-12-31T00:56:10.970Z,4.30
2018-12-31T00:59:00.986Z,4.87
2018-12-31T01:01:50.783Z,6.60
2018-12-31T01:04:40.852Z,6.10
2018-12-31T01:07:30.847Z,7.13
2018-12-31T01:10:20.700Z,3.93
2018-12-31T01:13:10.980Z,6.67
2018-12-31T01:16:00.860Z,7.17
2018-12-31T01:18:50.628Z,3.97
2018-12-31T01:21:40.098Z,5.30
2018-12-31T01:24:30.237Z,5.63
2018-12-31T01:27:20.070Z,4.50
2018-12-31T01:30:10.603Z,6.60
2018-12-31T01:33:00.107Z,6.00
2018-12-31T01:35:49.890Z,6.60
2018-12-31T01:38:39.706Z,7.57
2018-12-31T01:41:29.515Z,9.80
2018-12-31T01:44:19.402Z,6.13
2018-12-31T01:47:09.159Z,6.13
2018-12-31T01:49:59.202Z,2.90
2018-12-31T01:52:49.393Z,7.77
2018-12-31T01:55:39.614Z,5.57
2018-12-31T01:58:29.322Z,6.80
2018-12-31T02:01:19.277Z,7.80
2018-12-31T02:04:09.346Z,5.60
2018-12-31T02:06:59.384Z,8.40
2018-12-31T02:09:48.824Z,4.43
2018-12-31T02:12:38.973Z,7.30
2018-12-31T02:15:29.105Z,6.20
2018-12-31T02:18:19.347Z,15.00
2018-12-31T02:21:09.394Z,7.87
2018-12-31T02:23:59.207Z,4.40
2018-12-31T02:26:48.997Z,4.30
2018-12-31T02:29:38.981Z,9.10
2018-12-31T02:32:28.657Z,5.80
2018-12-31T02:35:18.810Z,5.97
2018-12-31T02:38:09.149Z,6.93
2018-12-31T02:40:58.558Z,7.27
2018-12-31T02:43:48.379Z,11.03
2018-12-31T02:46:38.592Z,8.70
2018-12-31T02:49:28.366Z,9.60
2018-12-31T02:52:18.091Z,10.90
2018-12-31T02:55:08.334Z,9.80
2018-12-31T02:57:58.223Z,6.17
2018-12-31T03:00:48.336Z,8.10
2018-12-31T03:03:38.629Z,7.50
2018-12-31T03:06:28.687Z,8.43
2018-12-31T03:09:18.940Z,10.37
2018-12-31T03:12:08.740Z,6.63
2018-12-31T03:14:58.445Z,9.40
2018-12-31T03:17:48.623Z,4.90
2018-12-31T03:20:49.909Z,7.57
2018-12-31T03:23:39.582Z,7.93
2018-12-31T03:26:29.745Z,7.83
2018-12-31T03:29:19.722Z,5.33
2018-12-31T03:32:09.733Z,11.23
2018-12-31T03:34:59.607Z,3.70
2018-12-31T03:37:49.668Z,3.50
2018-12-31T03:40:40.659Z,4.83
2018-12-31T03:43:30.779Z,5.90
2018-12-31T03:46:20.625Z,5.80
2018-12-31T03:49:10.741Z,5.97
2018-12-31T03:52:00.599Z,6.07
2018-12-31T03:54:50.447Z,8.67
2018-12-31T03:57:40.488Z,10.83
2018-12-31T04:00:30.839Z,4.50
2018-12-31T04:03:20.529Z,5.23
2018-12-31T04:06:10.545Z,6.23
2018-12-31T04:09:00.837Z,8.33
2018-12-31T04:11:51.538Z,7.23
2018-12-31T04:14:41.350Z,4.87
2018-12-31T04:17:30.964Z,6.57
2018-12-31T04:20:20.697Z,7.87
2018-12-31T04:23:10.567Z,5.03
2018-12-31T04:26:00.198Z,6.07
2018-12-31T04:28:50.497Z,10.93
2018-12-31T04:31:40.251Z,7.57
2018-12-31T04:34:30.100Z,5.60
2018-12-31T04:37:20.079Z,10.03
2018-12-31T04:40:09.820Z,5.17
2018-12-31T04:42:59.657Z,8.30
2018-12-31T04:45:49.588Z,6.23
2018-12-31T04:48:39.791Z,5.80
2018-12-31T04:51:29.569Z,4.87
2018-12-31T04:54:19.281Z,9.73
2018-12-31T04:57:09.211Z,11.40
2018-12-31T04:59:59.307Z,7.90
2018-12-31T05:02:49.293Z,5.80
2018-12-31T05:05:39.367Z,9.90
2018-12-31T05:08:29.127Z,8.87
2018-12-31T05:11:20.149Z,10.53
2018-12-31T05:14:10.138Z,8.70
2018-12-31T05:17:00.609Z,10.30
2018-12-31T05:19:50.594Z,6.97
2018-12-31T05:22:40.465Z,8.83
2018-12-31T05:25:30.541Z,6.17
2018-12-31T05:28:20.094Z,7.17
2018-12-31T05:31:10.319Z,11.97
2018-12-31T05:34:00.304Z,20.50
2018-12-31T05:36:50.463Z,19.63
2018-12-31T05:39:40.345Z,21.80
2018-12-31T05:42:30.375Z,12.40
2018-12-31T05:45:20.590Z,14.70
2018-12-31T05:48:10.653Z,12.43
2018-12-31T05:51:00.415Z,6.63
2018-12-31T05:53:50.853Z,7.80
2018-12-31T05:56:41.045Z,10.53
2018-12-31T05:59:31.007Z,7.80
2018-12-31T06:02:20.952Z,13.40
2018-12-31T06:05:11.028Z,7.73
2018-12-31T06:08:01.298Z,11.60
2018-12-31T06:10:51.203Z,13.33
2018-12-31T06:13:40.628Z,11.47
2018-12-31T06:16:30.224Z,6.90
2018-12-31T06:19:20.371Z,14.97
2018-12-31T06:22:10.473Z,9.17
2018-12-31T06:25:00.661Z,9.17
2018-12-31T06:27:50.425Z,13.67
2018-12-31T06:30:40.732Z,8.17
2018-12-31T06:33:30.494Z,11.83
2018-12-31T06:36:20.383Z,8.73
2018-12-31T06:39:10.026Z,9.23
2018-12-31T06:41:59.526Z,12.47
2018-12-31T06:44:49.391Z,13.10
2018-12-31T06:47:39.404Z,18.33
2018-12-31T06:50:29.591Z,16.23
2018-12-31T06:53:19.641Z,12.23
2018-12-31T06:56:09.488Z,12.37
2018-12-31T06:58:59.623Z,13.73
2018-12-31T07:01:50.430Z,11.20
2018-12-31T07:04:40.413Z,11.50
2018-12-31T07:07:30.377Z,7.83
2018-12-31T07:10:20.303Z,10.90
2018-12-31T07:13:10.535Z,11.07
2018-12-31T07:16:00.788Z,12.60
2018-12-31T07:18:51.261Z,13.33
2018-12-31T07:21:40.743Z,12.33
2018-12-31T07:24:30.577Z,11.03
2018-12-31T07:27:20.542Z,10.97
2018-12-31T07:30:10.469Z,8.73
2018-12-31T07:33:00.669Z,9.97
2018-12-31T07:35:50.461Z,9.47
2018-12-31T07:38:40.438Z,14.30
2018-12-31T07:41:30.734Z,14.23
2018-12-31T07:44:20.621Z,12.40
2018-12-31T07:47:10.933Z,9.97
2018-12-31T07:50:00.615Z,10.90
2018-12-31T07:52:50.468Z,10.60
2018-12-31T07:55:40.388Z,12.53
2018-12-31T07:58:29.877Z,9.63
2018-12-31T08:01:19.524Z,13.03
2018-12-31T08:04:09.940Z,14.13
2018-12-31T08:07:00.028Z,14.20
2018-12-31T08:09:50.176Z,14.60
2018-12-31T08:12:40.288Z,11.10
2018-12-31T08:15:30.337Z,13.07
2018-12-31T08:18:20.137Z,13.03
2018-12-31T08:21:10.058Z,13.23
2018-12-31T08:24:00.144Z,21.50
2018-12-31T08:26:50.230Z,17.03
2018-12-31T08:29:40.622Z,18.40
2018-12-31T08:32:30.807Z,10.33
2018-12-31T08:35:20.643Z,14.53
2018-12-31T08:38:10.471Z,15.13
2018-12-31T08:41:00.373Z,14.27
2018-12-31T08:43:50.202Z,15.37
2018-12-31T08:46:40.487Z,16.63
2018-12-31T08:49:30.139Z,14.00
2018-12-31T08:52:20.361Z,16.50
2018-12-31T08:55:10.189Z,19.37
2018-12-31T08:58:01.219Z,15.97
2018-12-31T09:00:51.027Z,14.87
2018-12-31T09:03:41.065Z,17.03
2018-12-31T09:06:31.146Z,13.37
2018-12-31T09:09:21.237Z,17.00
2018-12-31T09:12:10.997Z,18.60
2018-12-31T09:15:01.258Z,16.13
2018-12-31T09:17:51.188Z,18.10
2018-12-31T09:20:40.725Z,15.50
2018-12-31T09:23:30.268Z,15.27
2018-12-31T09:26:19.820Z,16.47
2018-12-31T09:29:09.706Z,16.40
2018-12-31T09:31:59.335Z,19.37
2018-12-31T09:34:49.123Z,18.33
2018-12-31T09:37:39.577Z,19.53
2018-12-31T09:40:29.664Z,24.57
2018-12-31T09:43:18.771Z,20.27
2018-12-31T09:46:08.326Z,19.87
2018-12-31T09:48:58.055Z,22.23
2018-12-31T09:51:47.746Z,23.80
2018-12-31T09:54:37.008Z,33.10
2018-12-31T09:57:27.119Z,27.37
2018-12-31T10:00:17.127Z,21.13
2018-12-31T10:03:06.946Z,21.17
2018-12-31T10:05:56.666Z,22.63
2018-12-31T10:08:49.306Z,30.43
2018-12-31T10:11:38.039Z,17.27
2018-12-31T10:14:28.014Z,22.43
2018-12-31T10:17:18.129Z,23.13
2018-12-31T10:20:08.619Z,18.23
2018-12-31T10:22:58.847Z,26.23
2018-12-31T10:25:48.490Z,19.63
2018-12-31T10:28:38.711Z,20.73
2018-12-31T10:31:28.521Z,21.60
2018-12-31T10:34:18.094Z,22.80
2018-12-31T10:37:08.041Z,22.53
2018-12-31T10:39:58.416Z,23.37
2018-12-31T10:42:48.699Z,25.63
2018-12-31T10:45:38.943Z,20.90
2018-12-31T10:48:29.191Z,23.80
2018-12-31T10:51:18.999Z,18.00
2018-12-31T10:54:09.031Z,23.23
2018-12-31T10:56:59.166Z,19.10
2018-12-31T10:59:49.353Z,19.90
2018-12-31T11:02:39.314Z,22.90
2018-12-31T11:05:29.512Z,22.17
2018-12-31T11:08:19.718Z,31.87
2018-12-31T11:11:09.689Z,20.13
2018-12-31T11:13:59.650Z,32.03
2018-12-31T11:16:50.672Z,22.63
2018-12-31T11:19:40.385Z,27.23
2018-12-31T11:22:30.449Z,24.00
2018-12-31T11:25:20.291Z,27.83
2018-12-31T11:28:10.867Z,30.07
2018-12-31T11:31:01.042Z,24.67
2018-12-31T11:33:51.121Z,25.53
2018-12-31T11:36:42.519Z,31.53
2018-12-31T11:39:32.562Z,23.73
2018-12-31T11:42:22.595Z,32.70
2018-12-31T11:45:12.302Z,29.87
2018-12-31T11:48:02.510Z,35.37
2018-12-31T11:50:52.672Z,37.73
2018-12-31T11:53:42.451Z,37.70
2018-12-31T11:56:32.131Z,28.73
2018-12-31T11:59:22.054Z,30.20
2018-12-31T12:02:12.037Z,32.57
2018-12-31T12:05:02.652Z,30.10
2018-12-31T12:07:52.880Z,29.67
2018-12-31T12:10:42.854Z,31.07
2018-12-31T12:13:32.770Z,30.63
2018-12-31T12:16:22.612Z,28.63
2018-12-31T12:19:16.172Z,35.07
2018-12-31T12:22:05.957Z,29.07
2018-12-31T12:24:56.356Z,29.07
2018-12-31T12:27:45.462Z,33.60
2018-12-31T12:30:35.495Z,31.87
2018-12-31T12:33:25.905Z,32.53
2018-12-31T12:36:16.191Z,31.70
2018-12-31T12:39:08.871Z,31.10
2018-12-31T12:41:58.484Z,31.17
2018-12-31T12:44:48.073Z,29.37
2018-12-31T12:47:37.942Z,29.47
2018-12-31T12:50:28.159Z,25.90
2018-12-31T12:53:17.956Z,28.77
2018-12-31T12:56:07.961Z,33.53
2018-12-31T12:58:58.054Z,29.10
2018-12-31T13:01:48.413Z,30.17
2018-12-31T13:04:38.431Z,39.33
2018-12-31T13:07:27.735Z,36.53
2018-12-31T13:10:17.364Z,30.90
2018-12-31T13:13:06.895Z,28.13
2018-12-31T13:15:56.808Z,29.77
2018-12-31T13:18:48.066Z,23.23
2018-12-31T13:21:38.427Z,31.00
2018-12-31T13:24:28.617Z,26.10
2018-12-31T13:27:18.949Z,30.60
2018-12-31T13:30:10.542Z,26.57
2018-12-31T13:33:01.739Z,24.17
2018-12-31T13:35:51.572Z,30.80
2018-12-31T13:38:41.708Z,29.93
2018-12-31T13:41:32.153Z,26.30
2018-12-31T13:44:22.424Z,30.47
2018-12-31T13:47:12.509Z,27.57
2018-12-31T13:50:01.911Z,22.43
2018-12-31T13:52:51.858Z,20.37
2018-12-31T13:55:42.323Z,24.77
2018-12-31T13:58:32.290Z,24.70
2018-12-31T14:01:21.901Z,17.50
2018-12-31T14:04:11.454Z,19.80
2018-12-31T14:07:00.815Z,18.80
2018-12-31T14:09:51.111Z,21.20
2018-12-31T14:12:40.907Z,19.77
2018-12-31T14:15:30.865Z,19.03
2018-12-31T14:18:21.083Z,18.77
2018-12-31T14:21:11.043Z,14.60
2018-12-31T14:24:01.164Z,20.30
2018-12-31T14:26:51.055Z,20.37
2018-12-31T14:29:41.473Z,20.20
2018-12-31T14:32:31.038Z,17.07
2018-12-31T14:35:21.650Z,20.00
2018-12-31T14:38:12.169Z,18.33
2018-12-31T14:41:02.317Z,17.43
2018-12-31T14:43:52.856Z,16.40
2018-12-31T14:46:43.001Z,17.63
2018-12-31T14:49:33.251Z,15.00
2018-12-31T14:52:23.265Z,23.10
2018-12-31T14:55:13.550Z,20.77
2018-12-31T14:58:03.923Z,16.80
2018-12-31T15:00:53.561Z,15.13
2018-12-31T15:03:43.616Z,16.47
2018-12-31T15:06:34.274Z,17.67
2018-12-31T15:09:24.528Z,17.27
2018-12-31T15:12:14.800Z,17.23
2018-12-31T15:15:04.896Z,18.20
2018-12-31T15:17:54.882Z,18.00
2018-12-31T15:20:46.140Z,12.47
2018-12-31T15:23:36.416Z,12.67
2018-12-31T15:26:26.152Z,7.70
2018-12-31T15:29:16.441Z,10.87
2018-12-31T15:32:06.141Z,10.13
2018-12-31T15:34:56.639Z,8.00
2018-12-31T15:37:46.439Z,20.60
2018-12-31T15:40:36.538Z,12.33
2018-12-31T15:43:26.645Z,10.43
2018-12-31T15:46:20.302Z,12.80
2018-12-31T15:49:08.328Z,13.30
2018-12-31T15:51:58.286Z,13.83
2018-12-31T15:54:48.545Z,12.40
2018-12-31T15:57:38.948Z,12.07
2018-12-31T16:00:28.760Z,11.97
2018-12-31T16:03:18.371Z,13.13
2018-12-31T16:06:08.511Z,12.53
2018-12-31T16:08:58.403Z,17.30
2018-12-31T16:11:48.359Z,13.90
2018-12-31T16:14:38.689Z,16.00
2018-12-31T16:17:31.443Z,17.13
2018-12-31T16:20:21.313Z,20.30
2018-12-31T16:23:11.679Z,32.63
2018-12-31T16:26:01.639Z,25.70
2018-12-31T16:28:51.747Z,18.27
2018-12-31T16:31:42.087Z,25.17
2018-12-31T16:34:33.030Z,27.87
2018-12-31T16:37:23.368Z,30.60
2018-12-31T16:40:13.436Z,24.63
2018-12-31T16:43:03.423Z,28.27
2018-12-31T16:46:01.448Z,29.23
2018-12-31T16:48:51.413Z,24.77
2018-12-31T16:51:41.187Z,26.80
2018-12-31T16:54:31.378Z,31.80
2018-12-31T16:57:21.303Z,24.43
2018-12-31T17:00:11.416Z,17.87
2018-12-31T17:03:01.642Z,26.50
2018-12-31T17:05:51.530Z,20.53
2018-12-31T17:08:41.449Z,18.63
2018-12-31T17:11:31.520Z,21.53
2018-12-31T17:14:21.616Z,15.23
2018-12-31T17:17:11.690Z,20.43
2018-12-31T17:20:01.578Z,17.40
2018-12-31T17:22:51.495Z,19.33
2018-12-31T17:25:41.304Z,26.70
2018-12-31T17:28:31.278Z,29.83
2018-12-31T17:31:21.297Z,161.30
2018-12-31T17:34:12.434Z,30.00
2018-12-31T17:37:02.497Z,73.43
2018-12-31T17:39:51.548Z,36.07
2018-12-31T17:42:41.175Z,38.07
2018-12-31T17:45:31.238Z,28.93
2018-12-31T17:48:20.764Z,49.43
2018-12-31T17:51:10.086Z,25.07
2018-12-31T17:53:59.624Z,21.87
2018-12-31T17:56:50.036Z,21.87
2018-12-31T17:59:39.968Z,19.80
2018-12-31T18:02:29.939Z,21.93
2018-12-31T18:05:20.129Z,17.03
2018-12-31T18:08:10.069Z,17.77
2018-12-31T18:11:00.079Z,23.47
2018-12-31T18:13:50.147Z,17.50
2018-12-31T18:16:39.880Z,120.87
2018-12-31T18:19:29.932Z,132.00
2018-12-31T18:22:20.404Z,37.60
2018-12-31T18:25:10.107Z,24.57
2018-12-31T18:28:02.961Z,25.83
2018-12-31T18:30:53.300Z,31.97
2018-12-31T18:33:42.819Z,23.40
2018-12-31T18:36:32.691Z,24.03
2018-12-31T18:39:22.706Z,27.50
2018-12-31T18:42:12.300Z,60.83
2018-12-31T18:45:03.327Z,33.40
2018-12-31T18:47:53.619Z,31.03
2018-12-31T18:50:43.446Z,29.00
2018-12-31T18:53:33.342Z,28.80
2018-12-31T18:56:23.120Z,25.17
2018-12-31T18:59:12.886Z,20.00
2018-12-31T19:02:02.783Z,24.93
2018-12-31T19:04:53.467Z,22.30
2018-12-31T19:07:43.204Z,17.67
2018-12-31T19:10:33.068Z,26.27
2018-12-31T19:13:23.476Z,31.50
2018-12-31T19:16:13.799Z,39.10
2018-12-31T19:19:03.343Z,40.07
2018-12-31T19:21:53.147Z,40.07
2018-12-31T19:24:43.150Z,52.37
2018-12-31T19:27:33.060Z,97.43
2018-12-31T19:30:23.069Z,61.30
2018-12-31T19:33:13.320Z,23.83
2018-12-31T19:36:03.177Z,58.30
2018-12-31T19:38:53.599Z,30.60
2018-12-31T19:41:43.119Z,22.17
2018-12-31T19:44:33.178Z,23.87
2018-12-31T19:47:25.955Z,19.06
2018-12-31T19:50:16.042Z,20.70
2018-12-31T19:53:06.205Z,18.70
2018-12-31T19:55:56.355Z,17.57
2018-12-31T19:58:45.838Z,15.10
2018-12-31T20:01:35.890Z,22.73
2018-12-31T20:04:25.381Z,21.80
2018-12-31T20:07:14.872Z,22.10
2018-12-31T20:10:04.660Z,17.93
2018-12-31T20:12:54.648Z,22.97
2018-12-31T20:15:48.650Z,35.13
2018-12-31T20:18:36.645Z,50.10
2018-12-31T20:21:26.831Z,45.63
2018-12-31T20:24:17.015Z,41.97
2018-12-31T20:27:07.236Z,312.87
2018-12-31T20:29:57.589Z,290.13
2018-12-31T20:32:47.792Z,66.63
2018-12-31T20:35:37.765Z,43.20
2018-12-31T20:38:27.580Z,42.50
2018-12-31T20:41:17.969Z,43.87
2018-12-31T20:44:07.514Z,29.97
2018-12-31T20:46:57.356Z,40.63
2018-12-31T20:49:47.457Z,27.17
2018-12-31T20:52:37.407Z,27.13
2018-12-31T20:55:27.301Z,25.10
2018-12-31T20:58:17.091Z,21.57
2018-12-31T21:01:07.108Z,21.17
2018-12-31T21:03:56.990Z,18.57
2018-12-31T21:06:49.632Z,23.30
2018-12-31T21:09:39.623Z,21.70
2018-12-31T21:12:29.930Z,17.73
2018-12-31T21:15:19.599Z,18.27
2018-12-31T21:18:09.625Z,20.10
2018-12-31T21:20:59.542Z,15.43
2018-12-31T21:23:49.560Z,13.33
2018-12-31T21:26:39.646Z,30.17
2018-12-31T21:29:29.424Z,22.70
2018-12-31T21:32:19.650Z,38.23
2018-12-31T21:35:10.320Z,31.63
2018-12-31T21:37:59.754Z,25.63
2018-12-31T21:40:49.774Z,30.17
2018-12-31T21:43:39.869Z,25.70
2018-12-31T21:46:30.778Z,37.67
2018-12-31T21:49:20.114Z,32.23
2018-12-31T21:52:10.171Z,33.47
2018-12-31T21:54:59.833Z,30.40
2018-12-31T21:57:49.967Z,31.97
2018-12-31T22:00:39.011Z,22.17
2018-12-31T22:03:28.906Z,25.40
2018-12-31T22:06:18.465Z,23.33
2018-12-31T22:09:09.052Z,20.57
2018-12-31T22:11:58.503Z,26.00
2018-12-31T22:14:48.084Z,22.27
2018-12-31T22:17:37.872Z,19.87
2018-12-31T22:20:28.081Z,21.07
2018-12-31T22:23:18.005Z,21.47
2018-12-31T22:26:08.421Z,19.60
2018-12-31T22:28:58.750Z,22.00
2018-12-31T22:31:48.654Z,23.27
2018-12-31T22:34:38.638Z,28.33
2018-12-31T22:37:28.158Z,23.13
2018-12-31T22:40:17.470Z,26.07
2018-12-31T22:43:10.512Z,23.53
2018-12-31T22:46:00.749Z,34.23
2018-12-31T22:48:50.584Z,21.00
2018-12-31T22:51:41.016Z,21.93
2018-12-31T22:54:30.868Z,31.33
2018-12-31T22:57:21.265Z,38.80
2018-12-31T23:00:12.759Z,27.10
2018-12-31T23:03:04.326Z,36.40
2018-12-31T23:05:54.384Z,266.13
2018-12-31T23:08:44.131Z,181.93
2018-12-31T23:11:34.247Z,457.70
2018-12-31T23:14:24.398Z,345.27
2018-12-31T23:17:17.051Z,416.23
2018-12-31T23:20:08.662Z,359.77
2018-12-31T23:22:58.065Z,289.33
2018-12-31T23:25:47.795Z,244.60
2018-12-31T23:28:38.051Z,219.13
2018-12-31T23:31:28.439Z,286.80
2018-12-31T23:34:18.117Z,240.23
2018-12-31T23:37:07.945Z,199.67
2018-12-31T23:39:57.859Z,215.33
2018-12-31T23:42:47.765Z,127.17
2018-12-31T23:45:37.767Z,112.17
2018-12-31T23:48:27.962Z,125.50
2018-12-31T23:51:17.697Z,98.90
2018-12-31T23:54:07.565Z,110.10
2018-12-31T23:56:57.495Z,84.37
2018-12-31T23:59:47.594Z,77.23
